createdAt,value
2023-01-19T00:01:29.979Z,98370.53
2023-01-19T00:03:57.277Z,98364.50
2023-01-19T00:06:24.728Z,98366.28
2023-01-19T00:08:52.133Z,98374.22
2023-01-19T00:11:20.124Z,98383.91
2023-01-19T00:13:51.636Z,98388.00
2023-01-19T00:16:21.794Z,98383.03
2023-01-19T00:18:51.663Z,98385.09
2023-01-19T00:21:19.760Z,98378.31
2023-01-19T00:23:47.809Z,98381.41
2023-01-19T00:26:16.575Z,98373.09
2023-01-19T00:28:44.623Z,98369.88
2023-01-19T00:31:12.517Z,98360.53
2023-01-19T00:33:39.879Z,98357.25
2023-01-19T00:36:09.134Z,98361.59
2023-01-19T00:38:36.468Z,98348.41
2023-01-19T00:41:03.705Z,98355.78
2023-01-19T00:43:30.930Z,98358.81
2023-01-19T00:45:58.331Z,98365.47
2023-01-19T00:48:25.675Z,98375.28
2023-01-19T00:50:52.959Z,98393.09
2023-01-19T00:53:20.310Z,98391.13
2023-01-19T00:55:47.828Z,98399.22
2023-01-19T00:58:15.290Z,98397.50
2023-01-19T01:00:42.936Z,98392.59
2023-01-19T01:03:10.421Z,98397.88
2023-01-19T01:05:41.843Z,98388.31
2023-01-19T01:08:09.127Z,98376.41
2023-01-19T01:10:36.464Z,98368.94
2023-01-19T01:13:20.313Z,98389.38
2023-01-19T01:15:53.175Z,98406.47
2023-01-19T01:18:21.657Z,98413.34
2023-01-19T01:20:49.072Z,98398.84
2023-01-19T01:23:16.513Z,98399.81
2023-01-19T01:25:43.933Z,98400.81
2023-01-19T01:28:11.348Z,98398.84
2023-01-19T01:30:41.102Z,98404.97
2023-01-19T01:33:08.496Z,98392.22
2023-01-19T01:35:35.876Z,98362.78
2023-01-19T01:38:03.904Z,98368.78
2023-01-19T01:40:31.388Z,98357.47
2023-01-19T01:42:59.145Z,98345.31
2023-01-19T01:45:38.410Z,98340.81
2023-01-19T01:48:05.848Z,98362.78
2023-01-19T01:50:35.669Z,98382.41
2023-01-19T01:53:08.408Z,98384.84
2023-01-19T01:55:45.479Z,98400.34
2023-01-19T01:58:15.447Z,98411.75
2023-01-19T02:01:01.653Z,98411.47
2023-01-19T02:03:29.751Z,98400.81
2023-01-19T02:06:01.892Z,98396.50
2023-01-19T02:09:00.965Z,98395.66
2023-01-19T02:11:48.523Z,98398.34
2023-01-19T02:14:16.314Z,98388.75
2023-01-19T02:16:43.927Z,98390.81
2023-01-19T02:19:18.173Z,98382.59
2023-01-19T02:21:58.665Z,98378.94
2023-01-19T02:24:29.613Z,98377.97
2023-01-19T02:26:58.051Z,98372.31
2023-01-19T02:29:26.694Z,98378.09
2023-01-19T02:31:55.758Z,98387.56
2023-01-19T02:34:23.332Z,98384.00
2023-01-19T02:36:52.758Z,98405.97
2023-01-19T02:39:28.161Z,98421.78
2023-01-19T02:42:01.474Z,98439.97
2023-01-19T02:44:30.706Z,98437.78
2023-01-19T02:46:58.025Z,98434.81
2023-01-19T02:49:28.624Z,98441.31
2023-01-19T02:51:56.810Z,98437.78
2023-01-19T02:54:35.921Z,98430.75
2023-01-19T02:57:12.401Z,98405.38
2023-01-19T03:00:13.628Z,98416.28
2023-01-19T03:02:59.174Z,98403.41
2023-01-19T03:05:51.395Z,98393.97
2023-01-19T03:08:42.294Z,98405.47
2023-01-19T03:11:12.711Z,98399.22
2023-01-19T03:13:45.956Z,98401.81
2023-01-19T03:16:13.450Z,98412.59
2023-01-19T03:18:46.149Z,98422.16
2023-01-19T03:21:15.121Z,98436.88
2023-01-19T03:23:46.250Z,98438.94
2023-01-19T03:26:18.487Z,98427.06
2023-01-19T03:28:47.502Z,98435.78
2023-01-19T03:31:22.669Z,98448.06
2023-01-19T03:34:22.958Z,98448.16
2023-01-19T03:36:54.138Z,98439.97
2023-01-19T03:39:28.733Z,98436.63
2023-01-19T03:42:03.137Z,98440.34
2023-01-19T03:44:33.278Z,98438.13
2023-01-19T03:47:01.097Z,98436.28
2023-01-19T03:49:31.553Z,98415.16
2023-01-19T03:51:59.567Z,98408.03
2023-01-19T03:54:27.532Z,98405.84
2023-01-19T03:56:54.860Z,98421.94
2023-01-19T03:59:22.380Z,98418.50
2023-01-19T04:01:49.847Z,98412.22
2023-01-19T04:04:17.363Z,98419.47
2023-01-19T04:06:44.790Z,98427.94
2023-01-19T04:09:12.081Z,98416.41
2023-01-19T04:11:39.491Z,98405.59
2023-01-19T04:14:06.813Z,98411.50
2023-01-19T04:16:34.217Z,98412.22
2023-01-19T04:19:01.864Z,98404.00
2023-01-19T04:21:29.249Z,98407.94
2023-01-19T04:23:56.493Z,98398.00
2023-01-19T04:26:24.097Z,98407.81
2023-01-19T04:28:51.477Z,98411.13
2023-01-19T04:31:19.447Z,98422.88
2023-01-19T04:33:46.770Z,98431.47
2023-01-19T04:36:14.026Z,98434.41
2023-01-19T04:38:41.337Z,98433.53
2023-01-19T04:41:08.657Z,98434.63
2023-01-19T04:43:35.983Z,98432.03
2023-01-19T04:46:05.812Z,98436.00
2023-01-19T04:48:33.426Z,98432.81
2023-01-19T04:51:00.790Z,98429.13
2023-01-19T04:53:30.901Z,98435.34
2023-01-19T04:55:59.762Z,98447.22
2023-01-19T04:58:27.395Z,98450.75
2023-01-19T05:00:54.664Z,98442.19
2023-01-19T05:03:21.908Z,98437.63
2023-01-19T05:05:49.240Z,98428.19
2023-01-19T05:08:16.570Z,98428.53
2023-01-19T05:10:43.776Z,98420.44
2023-01-19T05:13:11.024Z,98417.63
2023-01-19T05:15:38.531Z,98418.47
2023-01-19T05:18:05.973Z,98426.31
2023-01-19T05:20:33.241Z,98428.88
2023-01-19T05:23:01.202Z,98422.25
2023-01-19T05:25:29.113Z,98421.16
2023-01-19T05:27:56.344Z,98430.22
2023-01-19T05:30:24.547Z,98429.97
2023-01-19T05:32:52.532Z,98437.09
2023-01-19T05:35:31.345Z,98468.34
2023-01-19T05:38:03.212Z,98479.00
2023-01-19T05:40:31.268Z,98492.47
2023-01-19T05:43:01.636Z,98497.16
2023-01-19T05:45:30.173Z,98507.06
2023-01-19T05:47:57.606Z,98509.38
2023-01-19T05:50:25.471Z,98510.13
2023-01-19T05:52:53.612Z,98502.63
2023-01-19T05:55:21.578Z,98503.59
2023-01-19T05:57:48.879Z,98500.28
2023-01-19T06:00:17.222Z,98502.72
2023-01-19T06:02:44.977Z,98513.59
2023-01-19T06:05:12.506Z,98511.25
2023-01-19T06:07:39.897Z,98513.97
2023-01-19T06:10:08.471Z,98524.97
2023-01-19T06:12:35.909Z,98524.44
2023-01-19T06:15:03.437Z,98527.38
2023-01-19T06:17:32.533Z,98519.00
2023-01-19T06:19:59.738Z,98519.09
2023-01-19T06:22:27.112Z,98546.88
2023-01-19T06:24:54.601Z,98545.25
2023-01-19T06:27:21.991Z,98546.78
2023-01-19T06:29:49.257Z,98534.63
2023-01-19T06:32:17.519Z,98547.91
2023-01-19T06:34:44.964Z,98548.63
2023-01-19T06:37:12.358Z,98556.41
2023-01-19T06:39:41.282Z,98558.78
2023-01-19T06:42:09.232Z,98571.84
2023-01-19T06:44:37.109Z,98572.69
2023-01-19T06:47:15.751Z,98592.94
2023-01-19T06:49:44.167Z,98600.91
2023-01-19T06:52:14.276Z,98609.31
2023-01-19T06:54:43.395Z,98614.28
2023-01-19T06:57:14.041Z,98630.78
2023-01-19T06:59:42.182Z,98628.59
2023-01-19T07:02:27.770Z,98633.88
2023-01-19T07:04:56.978Z,98631.19
2023-01-19T07:07:24.634Z,98626.97
2023-01-19T07:09:54.095Z,98624.28
2023-01-19T07:12:22.600Z,98624.53
2023-01-19T07:14:50.465Z,98616.63
2023-01-19T07:17:18.288Z,98613.63
2023-01-19T07:19:46.764Z,98618.38
2023-01-19T07:22:14.332Z,98603.97
2023-01-19T07:24:41.820Z,98617.16
2023-01-19T07:27:11.567Z,98611.34
2023-01-19T07:29:40.038Z,98610.03
2023-01-19T07:32:07.629Z,98614.38
2023-01-19T07:34:36.030Z,98605.25
2023-01-19T07:37:04.446Z,98600.38
2023-01-19T07:39:32.174Z,98616.53
2023-01-19T07:41:59.863Z,98611.72
2023-01-19T07:44:27.268Z,98610.53
2023-01-19T07:46:54.694Z,98607.53
2023-01-19T07:49:22.089Z,98633.50
2023-01-19T07:51:49.778Z,98610.22
2023-01-19T07:54:17.075Z,98611.34
2023-01-19T07:56:44.444Z,98605.31
2023-01-19T07:59:12.140Z,98599.94
2023-01-19T08:01:39.738Z,98616.53
2023-01-19T08:04:07.245Z,98617.81
2023-01-19T08:06:37.440Z,98597.78
2023-01-19T08:09:05.794Z,98587.56
2023-01-19T08:11:33.744Z,98610.19
2023-01-19T08:14:01.114Z,98621.16
2023-01-19T08:16:28.485Z,98631.41
2023-01-19T08:18:56.298Z,98648.53
2023-01-19T08:21:23.868Z,98630.22
2023-01-19T08:23:55.615Z,98601.88
2023-01-19T08:26:29.919Z,98583.25
2023-01-19T08:29:00.029Z,98591.97
2023-01-19T08:31:27.620Z,98616.34
2023-01-19T08:33:55.275Z,98608.78
2023-01-19T08:36:23.892Z,98623.47
2023-01-19T08:38:52.673Z,98634.28
2023-01-19T08:41:20.288Z,98637.75
2023-01-19T08:43:48.225Z,98644.34
2023-01-19T08:46:21.818Z,98644.13
2023-01-19T08:48:50.427Z,98627.19
2023-01-19T08:51:18.562Z,98632.44
2023-01-19T08:53:45.968Z,98639.84
2023-01-19T08:56:13.882Z,98651.97
2023-01-19T08:58:42.359Z,98673.66
2023-01-19T09:01:14.897Z,98682.13
2023-01-19T09:03:42.748Z,98690.31
2023-01-19T09:06:14.651Z,98691.09
2023-01-19T09:08:42.001Z,98672.66
2023-01-19T09:11:13.705Z,98673.91
2023-01-19T09:13:41.694Z,98687.13
2023-01-19T09:16:11.526Z,98675.56
2023-01-19T09:18:39.424Z,98678.09
2023-01-19T09:21:06.839Z,98673.03
2023-01-19T09:23:34.220Z,98672.53
2023-01-19T09:26:03.478Z,98664.97
2023-01-19T09:28:30.991Z,98676.34
2023-01-19T09:30:58.405Z,98683.59
2023-01-19T09:33:25.849Z,98690.66
2023-01-19T09:35:53.143Z,98693.06
2023-01-19T09:38:20.928Z,98686.91
2023-01-19T09:40:54.469Z,98696.25
2023-01-19T09:43:30.998Z,98695.16
2023-01-19T09:46:04.166Z,98686.56
2023-01-19T09:48:34.530Z,98698.09
2023-01-19T09:51:08.613Z,98691.50
2023-01-19T09:53:55.588Z,98688.84
2023-01-19T09:56:23.918Z,98697.69
2023-01-19T09:58:52.223Z,98696.63
2023-01-19T10:01:28.692Z,98691.41
2023-01-19T10:04:17.346Z,98686.78
2023-01-19T10:06:46.745Z,98683.44
2023-01-19T10:09:32.036Z,98688.41
2023-01-19T10:12:35.748Z,98677.94
2023-01-19T10:15:20.847Z,98676.97
2023-01-19T10:18:09.518Z,98678.97
2023-01-19T10:20:41.776Z,98672.69
2023-01-19T10:23:25.089Z,98666.63
2023-01-19T10:25:52.510Z,98670.41
2023-01-19T10:28:25.536Z,98660.19
2023-01-19T10:30:55.904Z,98666.94
2023-01-19T10:33:23.336Z,98673.63
2023-01-19T10:35:50.763Z,98679.75
2023-01-19T10:38:22.324Z,98681.59
2023-01-19T10:40:59.745Z,98686.28
2023-01-19T10:43:44.294Z,98702.41
2023-01-19T10:46:17.800Z,98714.72
2023-01-19T10:48:48.943Z,98717.66
2023-01-19T10:51:16.582Z,98719.00
2023-01-19T10:54:02.198Z,98726.72
2023-01-19T10:56:37.304Z,98735.38
2023-01-19T10:59:07.030Z,98734.53
2023-01-19T11:01:37.303Z,98738.94
2023-01-19T11:04:28.623Z,98739.03
2023-01-19T11:07:23.021Z,98743.78
2023-01-19T11:10:10.678Z,98752.00
2023-01-19T11:13:02.816Z,98752.19
2023-01-19T11:15:44.057Z,98768.50
2023-01-19T11:18:33.899Z,98761.91
2023-01-19T11:21:06.447Z,98770.97
2023-01-19T11:23:42.096Z,98776.38
2023-01-19T11:26:16.375Z,98777.66
2023-01-19T11:28:48.727Z,98779.19
2023-01-19T11:31:16.078Z,98784.66
2023-01-19T11:33:50.567Z,98793.31
2023-01-19T11:36:21.349Z,98800.03
2023-01-19T11:38:51.826Z,98803.94
2023-01-19T11:41:26.091Z,98811.34
2023-01-19T11:43:55.977Z,98805.78
2023-01-19T11:46:27.365Z,98822.53
2023-01-19T11:49:20.035Z,98826.41
2023-01-19T11:51:53.334Z,98842.53
2023-01-19T11:54:27.380Z,98842.25
2023-01-19T11:56:58.673Z,98840.22
2023-01-19T11:59:26.221Z,98832.03
2023-01-19T12:01:57.976Z,98841.44
2023-01-19T12:04:32.845Z,98839.50
2023-01-19T12:07:07.747Z,98839.69
2023-01-19T12:09:42.794Z,98852.84
2023-01-19T12:12:31.149Z,98851.69
2023-01-19T12:15:26.454Z,98865.66
2023-01-19T12:17:58.695Z,98873.84
2023-01-19T12:20:36.668Z,98861.06
2023-01-19T12:23:25.418Z,98878.06
2023-01-19T12:26:21.972Z,98886.75
2023-01-19T12:28:51.201Z,98881.44
2023-01-19T12:31:23.243Z,98895.75
2023-01-19T12:33:51.529Z,98896.66
2023-01-19T12:36:27.849Z,98905.75
2023-01-19T12:39:19.215Z,98907.38
2023-01-19T12:41:47.539Z,98917.72
2023-01-19T12:44:21.330Z,98930.09
2023-01-19T12:47:07.643Z,98932.53
2023-01-19T12:49:40.491Z,98936.69
2023-01-19T12:52:25.436Z,98936.50
2023-01-19T12:55:13.534Z,98928.91
2023-01-19T12:58:02.213Z,98925.69
2023-01-19T13:00:33.725Z,98928.72
2023-01-19T13:03:03.942Z,98934.19
2023-01-19T13:05:32.824Z,98944.50
2023-01-19T13:08:07.199Z,98960.78
2023-01-19T13:10:53.294Z,98974.09
2023-01-19T13:13:24.747Z,98984.25
2023-01-19T13:15:55.602Z,98984.84
2023-01-19T13:18:39.123Z,98989.69
2023-01-19T13:21:09.038Z,99003.19
2023-01-19T13:23:51.450Z,99009.75
2023-01-19T13:26:33.086Z,99019.22
2023-01-19T13:29:08.789Z,99014.03
2023-01-19T13:31:38.412Z,99027.34
2023-01-19T13:34:17.150Z,99035.72
2023-01-19T13:36:47.227Z,99032.00
2023-01-19T13:39:28.893Z,99044.63
2023-01-19T13:42:01.513Z,99040.78
2023-01-19T13:44:42.344Z,99051.34
2023-01-19T13:47:19.156Z,99048.13
2023-01-19T13:49:48.567Z,99059.81
2023-01-19T13:52:25.629Z,99066.19
2023-01-19T13:54:55.100Z,99068.94
2023-01-19T13:57:25.022Z,99074.06
2023-01-19T14:00:01.415Z,99079.59
2023-01-19T14:02:28.794Z,99075.44
2023-01-19T14:04:57.304Z,99072.81
2023-01-19T14:07:26.589Z,99085.91
2023-01-19T14:10:06.131Z,99098.03
2023-01-19T14:12:33.636Z,99111.38
2023-01-19T14:15:01.003Z,99107.69
2023-01-19T14:17:30.414Z,99117.38
2023-01-19T14:20:01.000Z,99130.88
2023-01-19T14:22:42.580Z,99138.53
2023-01-19T14:25:34.268Z,99147.50
2023-01-19T14:28:30.441Z,99161.47
2023-01-19T14:31:00.700Z,99172.22
2023-01-19T14:33:41.946Z,99185.75
2023-01-19T14:36:11.667Z,99185.44
2023-01-19T14:38:50.596Z,99178.88
2023-01-19T14:41:37.055Z,99171.41
2023-01-19T14:44:10.027Z,99166.91
2023-01-19T14:46:38.499Z,99176.59
2023-01-19T14:49:06.787Z,99171.16
2023-01-19T14:51:34.227Z,99171.56
2023-01-19T14:54:02.947Z,99178.81
2023-01-19T14:56:32.400Z,99181.91
2023-01-19T14:59:02.508Z,99185.44
2023-01-19T15:01:31.294Z,99190.03
2023-01-19T15:03:58.901Z,99190.25
2023-01-19T15:06:26.887Z,99189.56
2023-01-19T15:08:54.726Z,99189.56
2023-01-19T15:11:33.865Z,99190.50
2023-01-19T15:14:02.032Z,99201.00
2023-01-19T15:16:33.797Z,99204.47
2023-01-19T15:19:01.253Z,99208.94
2023-01-19T15:21:28.711Z,99215.19
2023-01-19T15:23:56.355Z,99216.97
2023-01-19T15:26:26.344Z,99225.03
2023-01-19T15:28:56.329Z,99228.81
2023-01-19T15:31:24.100Z,99221.00
2023-01-19T15:33:51.368Z,99237.88
2023-01-19T15:36:21.127Z,99248.63
2023-01-19T15:38:51.152Z,99247.59
2023-01-19T15:41:25.965Z,99246.94
2023-01-19T15:43:55.167Z,99250.50
2023-01-19T15:46:23.823Z,99249.72
2023-01-19T15:48:51.916Z,99253.13
2023-01-19T15:51:21.774Z,99249.56
2023-01-19T15:53:49.639Z,99246.81
2023-01-19T15:56:23.512Z,99261.78
2023-01-19T15:58:51.793Z,99274.34
2023-01-19T16:01:22.051Z,99298.38
2023-01-19T16:03:50.899Z,99299.06
2023-01-19T16:06:21.511Z,99309.28
2023-01-19T16:08:48.761Z,99320.56
2023-01-19T16:11:18.503Z,99318.72
2023-01-19T16:13:46.397Z,99322.41
2023-01-19T16:16:19.667Z,99314.25
2023-01-19T16:18:47.214Z,99323.97
2023-01-19T16:21:18.208Z,99315.91
2023-01-19T16:23:45.961Z,99318.78
2023-01-19T16:26:43.647Z,99322.41
2023-01-19T16:29:11.053Z,99322.25
2023-01-19T16:31:39.812Z,99328.38
2023-01-19T16:34:09.393Z,99316.22
2023-01-19T16:36:41.159Z,99327.03
2023-01-19T16:39:13.676Z,99328.78
2023-01-19T16:41:41.542Z,99339.22
2023-01-19T16:44:10.640Z,99340.50
2023-01-19T16:46:40.951Z,99345.84
2023-01-19T16:49:15.826Z,99349.63
2023-01-19T16:51:44.417Z,99351.22
2023-01-19T16:54:14.513Z,99346.44
2023-01-19T16:56:44.035Z,99354.19
2023-01-19T16:59:12.853Z,99362.97
2023-01-19T17:01:46.051Z,99371.00
2023-01-19T17:04:14.954Z,99378.41
2023-01-19T17:06:42.462Z,99390.09
2023-01-19T17:09:10.368Z,99380.69
2023-01-19T17:11:40.283Z,99385.81
2023-01-19T17:14:11.445Z,99390.97
2023-01-19T17:16:39.006Z,99392.25
2023-01-19T17:19:07.897Z,99397.69
2023-01-19T17:21:35.645Z,99398.63
2023-01-19T17:24:03.191Z,99399.66
2023-01-19T17:26:31.325Z,99399.16
2023-01-19T17:29:00.487Z,99399.88
2023-01-19T17:31:28.929Z,99401.91
2023-01-19T17:33:56.502Z,99394.88
2023-01-19T17:36:25.509Z,99403.81
2023-01-19T17:38:54.469Z,99404.03
2023-01-19T17:41:24.653Z,99414.44
2023-01-19T17:43:52.304Z,99413.44
2023-01-19T17:46:21.789Z,99415.97
2023-01-19T17:48:56.667Z,99415.03
2023-01-19T17:51:24.798Z,99401.84
2023-01-19T17:53:53.126Z,99399.31
2023-01-19T17:56:27.611Z,99402.03
2023-01-19T17:58:58.622Z,99402.59
2023-01-19T18:01:31.615Z,99389.47
2023-01-19T18:03:59.752Z,99386.56
2023-01-19T18:06:27.015Z,99395.75
2023-01-19T18:08:54.326Z,99398.72
2023-01-19T18:11:21.824Z,99401.25
2023-01-19T18:13:50.725Z,99393.00
2023-01-19T18:16:29.109Z,99400.91
2023-01-19T18:18:57.628Z,99393.22
2023-01-19T18:21:29.091Z,99401.13
2023-01-19T18:24:04.205Z,99397.50
2023-01-19T18:26:33.560Z,99397.66
2023-01-19T18:29:01.429Z,99411.06
2023-01-19T18:31:29.002Z,99419.97
2023-01-19T18:33:56.445Z,99427.66
2023-01-19T18:36:23.850Z,99422.06
2023-01-19T18:38:52.476Z,99435.81
2023-01-19T18:41:21.548Z,99447.34
2023-01-19T18:43:49.327Z,99453.44
2023-01-19T18:46:17.002Z,99446.19
2023-01-19T18:48:44.706Z,99444.53
2023-01-19T18:51:14.385Z,99448.19
2023-01-19T18:53:42.470Z,99447.56
2023-01-19T18:56:12.950Z,99458.88
2023-01-19T18:58:40.538Z,99458.88
2023-01-19T19:01:27.921Z,99462.09
2023-01-19T19:03:56.820Z,99463.28
2023-01-19T19:06:39.251Z,99468.28
2023-01-19T19:09:06.683Z,99466.38
2023-01-19T19:11:34.553Z,99469.22
2023-01-19T19:14:04.156Z,99474.69
2023-01-19T19:16:34.705Z,99482.25
2023-01-19T19:19:02.718Z,99486.53
2023-01-19T19:21:29.944Z,99492.72
2023-01-19T19:23:58.539Z,99510.13
2023-01-19T19:26:28.203Z,99510.28
2023-01-19T19:28:55.641Z,99489.72
2023-01-19T19:31:25.997Z,99484.00
2023-01-19T19:33:55.158Z,99495.25
2023-01-19T19:36:24.113Z,99489.81
2023-01-19T19:38:52.058Z,99470.66
2023-01-19T19:41:22.528Z,99477.16
2023-01-19T19:43:50.138Z,99471.38
2023-01-19T19:46:20.168Z,99463.72
2023-01-19T19:48:48.880Z,99459.66
2023-01-19T19:51:22.509Z,99436.97
2023-01-19T19:53:51.825Z,99423.91
2023-01-19T19:56:23.015Z,99454.69
2023-01-19T19:58:51.824Z,99469.13
2023-01-19T20:01:23.043Z,99480.69
2023-01-19T20:03:52.136Z,99492.38
2023-01-19T20:06:22.312Z,99480.88
2023-01-19T20:08:51.987Z,99479.09
2023-01-19T20:11:22.542Z,99481.66
2023-01-19T20:13:50.810Z,99494.00
2023-01-19T20:16:20.892Z,99508.25
2023-01-19T20:18:54.307Z,99510.94
2023-01-19T20:21:29.805Z,99502.59
2023-01-19T20:24:00.759Z,99531.81
2023-01-19T20:26:31.789Z,99533.44
2023-01-19T20:29:02.933Z,99533.34
2023-01-19T20:31:33.143Z,99528.72
2023-01-19T20:34:05.068Z,99524.91
2023-01-19T20:36:33.167Z,99530.06
2023-01-19T20:39:01.412Z,99530.00
2023-01-19T20:41:28.710Z,99525.91
2023-01-19T20:43:56.107Z,99531.25
2023-01-19T20:46:23.385Z,99533.53
2023-01-19T20:48:53.049Z,99535.75
2023-01-19T20:51:21.115Z,99534.88
2023-01-19T20:53:48.730Z,99533.22
2023-01-19T20:56:16.398Z,99526.19
2023-01-19T20:58:43.823Z,99527.13
2023-01-19T21:01:14.583Z,99532.38
2023-01-19T21:03:42.818Z,99532.69
2023-01-19T21:06:10.784Z,99531.94
2023-01-19T21:08:38.527Z,99544.66
2023-01-19T21:11:07.122Z,99549.97
2023-01-19T21:13:35.468Z,99561.41
2023-01-19T21:16:05.014Z,99565.16
2023-01-19T21:18:33.395Z,99563.66
2023-01-19T21:21:00.952Z,99563.22
2023-01-19T21:23:28.835Z,99557.66
2023-01-19T21:25:59.667Z,99568.44
2023-01-19T21:28:28.849Z,99548.88
2023-01-19T21:30:57.609Z,99550.81
2023-01-19T21:33:25.262Z,99545.59
2023-01-19T21:35:57.263Z,99528.78
2023-01-19T21:38:30.196Z,99537.81
2023-01-19T21:40:58.417Z,99534.19
2023-01-19T21:43:26.730Z,99547.28
2023-01-19T21:45:54.105Z,99539.16
2023-01-19T21:48:22.081Z,99523.41
2023-01-19T21:50:58.564Z,99521.69
2023-01-19T21:53:25.897Z,99523.97
2023-01-19T21:55:53.267Z,99514.25
2023-01-19T21:58:23.821Z,99507.09
2023-01-19T22:00:58.483Z,99499.84
2023-01-19T22:03:27.420Z,99499.84
2023-01-19T22:05:56.053Z,99485.78
2023-01-19T22:08:24.478Z,99475.47
2023-01-19T22:10:51.763Z,99467.22
2023-01-19T22:13:19.425Z,99462.00
2023-01-19T22:15:46.653Z,99452.22
2023-01-19T22:18:13.978Z,99442.56
2023-01-19T22:20:41.341Z,99448.09
2023-01-19T22:23:08.629Z,99454.69
2023-01-19T22:25:35.946Z,99456.84
2023-01-19T22:28:03.268Z,99466.78
2023-01-19T22:30:30.680Z,99462.00
2023-01-19T22:33:00.159Z,99464.47
2023-01-19T22:35:28.429Z,99478.94
2023-01-19T22:37:55.707Z,99481.41
2023-01-19T22:40:23.033Z,99487.38
2023-01-19T22:42:50.416Z,99492.41
2023-01-19T22:45:17.855Z,99493.59
2023-01-19T22:47:46.475Z,99499.72
2023-01-19T22:50:15.214Z,99503.94
2023-01-19T22:52:42.587Z,99511.75
2023-01-19T22:55:10.213Z,99522.94
2023-01-19T22:57:38.355Z,99519.38
2023-01-19T23:00:09.258Z,99522.81
2023-01-19T23:02:37.740Z,99518.81
2023-01-19T23:05:06.674Z,99523.34
2023-01-19T23:07:34.085Z,99518.38
2023-01-19T23:10:01.768Z,99503.59
2023-01-19T23:12:33.353Z,99512.44
2023-01-19T23:15:00.628Z,99507.69
2023-01-19T23:17:29.722Z,99510.41
2023-01-19T23:19:57.457Z,99513.09
2023-01-19T23:22:25.708Z,99512.44
2023-01-19T23:24:53.489Z,99505.66
2023-01-19T23:27:20.821Z,99495.22
2023-01-19T23:29:48.165Z,99498.19
2023-01-19T23:32:15.416Z,99491.88
2023-01-19T23:34:43.194Z,99484.88
2023-01-19T23:37:11.655Z,99489.59
2023-01-19T23:39:39.059Z,99487.03
2023-01-19T23:42:09.203Z,99484.53
2023-01-19T23:44:38.607Z,99481.06
2023-01-19T23:47:05.914Z,99481.13
2023-01-19T23:49:33.261Z,99483.88
2023-01-19T23:52:00.535Z,99471.41
2023-01-19T23:54:51.956Z,99480.53
2023-01-19T23:57:19.675Z,99465.44
2023-01-19T23:59:47.988Z,99455.75
